CYDP/YDP METAR and TAF weather

Enter ICAO airport designator
Station Type Date Time Source
CYDP METAR 2018/04/26 23:00 UTC NOAA

CYDP 262300Z 11008KT 15SM -RA OVC080 OVC210 02/01 A2977 RMK AS8CS1 CS TR LAST STFD OBS/ NEXT 270800Z SLP084


Station Type Date Time Source
CYDP Decoded METAR 2018/04/26 23:00 UTC NOAA

Nain, Nfld, Canada (CYDP) 56-33N 061-41W 7M
Apr 26, 2018 - 07:00 PM EDT / 2018.04.26 2300 UTC
Wind: from the ESE (110 degrees) at 9 MPH (8 KT):0
Visibility: 15 mile(s):0
Sky conditions: overcast
Weather: light rain
Temperature: 35 F (2 C)
Windchill: 28 F (-2 C):1
Dew Point: 33 F (1 C)
Relative Humidity: 93%
Pressure (altimeter): 29.77 in. Hg (1008 hPa)
ob: CYDP 262300Z 11008KT 15SM -RA OVC080 OVC210 02/01 A2977 RMK AS8CS1 CS TR LAST STFD OBS/ NEXT 270800Z SLP084
cycle: 23

Station Type Date Time Source
CYDP TAF 2018/04/26 20:00 UTC NOAA

TAF CYDP 261939Z 2620/2623 VRB03KT P6SM SCT030 BKN100
TEMPO 2620/2622 5SM -SHRASN BKN030 OVC100
FM262200 13008KT P6SM -RA SCT012 OVC030
TEMPO 2622/2623 4SM -RA BR OVC012
RMK NXT FCST WILL BE ISSUED AT 270945Z


Example: see airport list